Time;durP1;ratioP1;P1;durP2;ratioP2;P2;SDS_P1;SDS_P2;PMS_P1;PMS_P2;Temp;Humidity;BMP_temperature;BMP_pressure;BME280_temperature;BME280_humidity;BME280_pressure;Samples;Min_cycle;Max_cycle;Signal;HPM_P1;HPM_P2
2023/04/15 00:00:23;;;;;;;35.03;25.33;;;8.20;99.90;;;;;;4968398;28;20654;-74
2023/04/15 00:02:48;;;;;;;31.37;24.67;;;8.30;99.90;;;;;;4965455;28;20197;-63
2023/04/15 00:05:15;;;;;;;37.43;26.40;;;8.30;99.90;;;;;;4977800;28;20683;-77
2023/04/15 00:07:40;;;;;;;35.37;25.43;;;8.40;99.90;;;;;;4975763;28;20201;-71
2023/04/15 00:10:06;;;;;;;34.27;25.77;;;8.40;99.90;;;;;;4977560;28;20857;-72
2023/04/15 00:12:32;;;;;;;37.40;25.53;;;8.40;99.90;;;;;;4976332;28;20677;-71
2023/04/15 00:14:57;;;;;;;33.13;24.23;;;8.50;99.90;;;;;;4973652;28;20586;-72
2023/04/15 00:17:23;;;;;;;41.77;26.83;;;8.40;99.90;;;;;;4968382;28;20655;-70
2023/04/15 00:19:49;;;;;;;36.05;26.15;;;8.50;99.90;;;;;;4968255;28;20568;-71
2023/04/15 00:22:14;;;;;;;36.53;26.67;;;8.40;99.90;;;;;;4965528;28;20209;-72
2023/04/15 00:24:40;;;;;;;32.53;23.63;;;8.40;99.90;;;;;;4973654;28;20570;-73
2023/04/15 00:27:06;;;;;;;34.67;25.40;;;8.40;99.90;;;;;;4977671;28;20209;-74
2023/04/15 00:29:33;;;;;;;36.97;24.87;;;8.40;99.90;;;;;;4976967;28;20197;-73
2023/04/15 00:31:59;;;;;;;35.63;26.23;;;8.40;99.90;;;;;;4976730;28;20196;-73
2023/04/15 00:34:24;;;;;;;37.53;27.60;;;8.50;99.90;;;;;;4970474;28;20231;-71
2023/04/15 00:36:53;;;;;;;34.40;25.47;;;8.50;99.90;;;;;;4965887;28;20549;-71
2023/04/15 00:39:18;;;;;;;34.47;23.87;;;8.50;99.90;;;;;;4969943;28;20308;-72
2023/04/15 00:41:45;;;;;;;30.50;25.20;;;8.50;99.90;;;;;;4969754;28;20750;-72
2023/04/15 00:44:10;;;;;;;36.27;25.90;;;8.50;99.90;;;;;;4968313;28;20686;-71
2023/04/15 00:46:38;;;;;;;32.97;24.43;;;8.50;99.90;;;;;;4964957;28;20223;-75
2023/04/15 00:49:04;;;;;;;34.07;25.40;;;8.50;99.90;;;;;;4966399;28;20231;-75
2023/04/15 00:51:32;;;;;;;33.50;25.13;;;8.50;99.90;;;;;;4968083;28;20205;-74
2023/04/15 00:53:58;;;;;;;35.33;26.33;;;8.50;99.90;;;;;;4965873;28;20217;-75
2023/04/15 00:56:24;;;;;;;36.00;24.97;;;8.50;99.90;;;;;;4965149;28;20209;-74
2023/04/15 00:58:51;;;;;;;36.63;25.53;;;8.50;99.90;;;;;;4967869;28;20876;-74
2023/04/15 01:01:20;;;;;;;36.10;26.60;;;8.40;99.90;;;;;;4973644;28;20299;-75
2023/04/15 01:03:48;;;;;;;35.73;25.53;;;8.40;99.90;;;;;;4959212;28;20211;-75
2023/04/15 01:06:14;;;;;;;36.17;25.43;;;8.40;99.90;;;;;;4976474;28;20200;-74
2023/04/15 01:08:40;;;;;;;34.37;24.93;;;8.40;99.90;;;;;;4974769;28;20365;-73
2023/04/15 01:11:06;;;;;;;33.50;24.93;;;8.40;99.90;;;;;;4976595;28;20299;-73
2023/04/15 01:13:33;;;;;;;32.50;23.87;;;8.40;99.90;;;;;;4976699;28;20204;-74
2023/04/15 01:16:00;;;;;;;31.57;24.63;;;8.40;99.90;;;;;;4977889;28;20244;-73
2023/04/15 01:18:26;;;;;;;38.67;27.37;;;8.40;99.90;;;;;;4976067;28;20193;-74
2023/04/15 01:20:52;;;;;;;39.17;25.90;;;8.40;99.90;;;;;;4972876;28;20531;-72
2023/04/15 01:23:18;;;;;;;41.30;26.20;;;8.30;99.90;;;;;;4975821;28;20189;-70
2023/04/15 01:25:45;;;;;;;35.07;25.93;;;8.40;99.90;;;;;;4976502;28;20205;-72
2023/04/15 01:28:10;;;;;;;37.03;27.57;;;8.40;99.90;;;;;;4975888;28;20291;-72
2023/04/15 01:30:36;;;;;;;40.50;28.10;;;8.40;99.90;;;;;;4976630;28;20205;-71
2023/04/15 01:33:02;;;;;;;35.87;25.40;;;8.40;99.90;;;;;;4976253;28;20233;-71
2023/04/15 01:35:27;;;;;;;42.33;26.13;;;8.40;99.90;;;;;;4974910;28;20204;-71
2023/04/15 01:37:57;;;;;;;36.80;26.07;;;8.40;99.90;;;;;;4978722;28;20678;-71
2023/04/15 01:40:23;;;;;;;38.33;27.87;;;8.40;99.90;;;;;;4974597;28;20230;-72
2023/04/15 01:42:49;;;;;;;39.57;28.40;;;8.40;99.90;;;;;;4974210;28;20667;-72
2023/04/15 01:45:15;;;;;;;41.80;28.43;;;8.50;99.90;;;;;;4968161;28;20562;-72
2023/04/15 01:47:41;;;;;;;39.30;26.77;;;8.40;99.90;;;;;;4977550;28;20259;-72
2023/04/15 01:50:07;;;;;;;39.83;28.10;;;8.40;99.90;;;;;;4980367;28;20659;-72
2023/04/15 01:52:32;;;;;;;35.50;25.60;;;8.50;99.90;;;;;;4980618;28;20282;-72
2023/04/15 01:54:58;;;;;;;37.67;27.40;;;8.40;99.90;;;;;;4977915;28;20668;-72
2023/04/15 01:57:24;;;;;;;36.13;26.80;;;8.40;99.90;;;;;;4978630;28;20212;-72
2023/04/15 01:59:50;;;;;;;39.87;26.37;;;8.40;99.90;;;;;;4980590;28;20548;-72
2023/04/15 02:02:16;;;;;;;39.37;28.03;;;8.50;99.90;;;;;;4979888;28;20213;-72
2023/04/15 02:04:41;;;;;;;41.57;28.57;;;8.50;99.90;;;;;;4980964;28;20304;-72
2023/04/15 02:07:07;;;;;;;38.00;25.87;;;8.50;99.90;;;;;;4980858;28;20799;-72
2023/04/15 02:09:32;;;;;;;37.53;26.73;;;8.50;99.90;;;;;;4979306;28;20247;-72
2023/04/15 02:11:59;;;;;;;41.57;28.03;;;8.50;99.90;;;;;;4978552;28;20739;-71
2023/04/15 02:14:25;;;;;;;37.03;26.27;;;8.40;99.90;;;;;;4980173;28;20573;-72
2023/04/15 02:16:50;;;;;;;35.30;26.07;;;8.40;99.90;;;;;;4980057;28;20205;-71
2023/04/15 02:19:16;;;;;;;34.20;26.83;;;8.40;99.90;;;;;;4979583;28;20310;-71
2023/04/15 02:21:41;;;;;;;39.80;26.80;;;8.50;99.90;;;;;;4980688;28;20216;-71
2023/04/15 02:24:07;;;;;;;38.47;27.10;;;8.50;99.90;;;;;;4977569;28;20790;-72
2023/04/15 02:26:32;;;;;;;40.13;27.67;;;8.50;99.90;;;;;;4979420;28;20197;-72
2023/04/15 02:28:58;;;;;;;38.13;28.33;;;8.50;99.90;;;;;;4979318;28;20193;-73
2023/04/15 02:31:24;;;;;;;35.93;26.07;;;8.50;99.90;;;;;;4978088;28;20586;-72
2023/04/15 02:33:50;;;;;;;36.97;26.57;;;8.50;99.90;;;;;;4970805;28;20229;-72
2023/04/15 02:36:15;;;;;;;37.70;25.80;;;8.50;99.90;;;;;;4979950;28;20687;-72
2023/04/15 02:38:42;;;;;;;35.50;26.47;;;8.50;99.90;;;;;;4967237;28;20617;-73
2023/04/15 02:41:09;;;;;;;35.90;25.27;;;8.50;99.90;;;;;;4968891;28;20221;-72
2023/04/15 02:43:34;;;;;;;39.77;27.53;;;8.50;99.90;;;;;;4969646;28;20681;-72
2023/04/15 02:46:00;;;;;;;37.43;25.63;;;8.50;99.90;;;;;;4971583;28;20197;-75
2023/04/15 02:48:25;;;;;;;37.40;25.77;;;8.50;99.90;;;;;;4964393;28;20200;-73
2023/04/15 02:50:51;;;;;;;39.73;28.07;;;8.60;99.90;;;;;;4979640;28;20217;-74
2023/04/15 02:53:16;;;;;;;38.70;26.83;;;8.60;99.90;;;;;;4970886;28;20667;-73
2023/04/15 02:55:42;;;;;;;38.30;26.87;;;8.60;99.90;;;;;;4968393;28;20198;-74
2023/04/15 02:58:07;;;;;;;43.93;27.70;;;8.60;99.90;;;;;;4968769;28;20256;-75
2023/04/15 03:00:33;;;;;;;36.73;27.23;;;8.60;99.90;;;;;;4967461;28;20927;-73
2023/04/15 03:03:02;;;;;;;39.50;26.60;;;8.60;99.90;;;;;;4970158;28;20198;-74
2023/04/15 03:05:28;;;;;;;33.87;26.00;;;8.60;99.90;;;;;;4971674;28;20259;-73
2023/04/15 03:07:53;;;;;;;34.70;26.27;;;8.60;99.90;;;;;;4966106;28;20194;-73
2023/04/15 03:10:20;;;;;;;34.53;25.10;;;8.60;99.90;;;;;;4975365;28;20306;-73
2023/04/15 03:12:46;;;;;;;34.53;26.40;;;8.60;99.90;;;;;;4968238;28;20622;-74
2023/04/15 03:15:11;;;;;;;34.63;25.53;;;8.60;99.90;;;;;;4968759;28;20215;-73
2023/04/15 03:17:37;;;;;;;36.43;24.30;;;8.60;99.90;;;;;;4969115;28;20698;-74
2023/04/15 03:20:04;;;;;;;32.13;24.00;;;8.60;99.90;;;;;;4968833;28;20562;-73
2023/04/15 03:22:30;;;;;;;35.07;25.67;;;8.60;99.90;;;;;;4967365;28;20205;-71
2023/04/15 03:24:56;;;;;;;36.77;25.13;;;8.70;99.90;;;;;;4968703;28;20198;-72
2023/04/15 03:27:21;;;;;;;35.50;24.87;;;8.70;99.90;;;;;;4967050;28;20213;-71
2023/04/15 03:29:47;;;;;;;35.17;24.83;;;8.80;99.90;;;;;;4969378;28;20213;-71
2023/04/15 03:32:14;;;;;;;38.80;26.30;;;8.80;99.90;;;;;;4968378;28;20213;-70
2023/04/15 03:34:40;;;;;;;37.90;26.07;;;8.80;99.90;;;;;;4951163;28;20205;-73
2023/04/15 03:37:05;;;;;;;33.63;23.90;;;8.80;99.90;;;;;;4971586;28;20199;-72
2023/04/15 03:39:31;;;;;;;38.10;25.83;;;8.80;99.90;;;;;;4965568;28;20288;-73
2023/04/15 03:41:57;;;;;;;35.40;23.47;;;8.80;99.90;;;;;;4969182;28;20232;-73
2023/04/15 03:44:22;;;;;;;34.47;25.47;;;8.80;99.90;;;;;;4969467;28;20682;-73
2023/04/15 03:46:48;;;;;;;33.63;25.37;;;8.80;99.90;;;;;;4969040;28;20626;-72
2023/04/15 03:49:13;;;;;;;33.10;24.53;;;8.80;99.90;;;;;;4968482;28;20426;-73
2023/04/15 03:51:39;;;;;;;30.90;23.97;;;8.80;99.90;;;;;;4968007;28;20735;-73
2023/04/15 03:54:05;;;;;;;36.63;25.00;;;8.80;99.90;;;;;;4968362;28;20746;-73
2023/04/15 03:56:30;;;;;;;30.73;24.20;;;8.80;99.90;;;;;;4968654;28;20209;-74
2023/04/15 03:58:56;;;;;;;34.23;25.17;;;8.80;99.90;;;;;;4968376;28;20205;-73
2023/04/15 04:01:21;;;;;;;31.87;23.33;;;8.90;99.90;;;;;;4968123;28;20223;-73
2023/04/15 04:03:47;;;;;;;32.93;23.90;;;8.90;99.90;;;;;;4968311;28;20896;-74
2023/04/15 04:06:13;;;;;;;28.70;22.73;;;8.90;99.90;;;;;;4966614;28;20194;-72
2023/04/15 04:08:38;;;;;;;29.93;22.77;;;8.90;99.90;;;;;;4980318;28;20215;-73
2023/04/15 04:11:04;;;;;;;33.07;23.87;;;8.90;99.90;;;;;;4975234;28;20193;-73
2023/04/15 04:13:29;;;;;;;35.50;24.97;;;8.90;99.90;;;;;;4976657;28;20538;-73
2023/04/15 04:15:55;;;;;;;35.07;22.47;;;8.90;99.90;;;;;;4968488;28;20291;-73
2023/04/15 04:18:20;;;;;;;34.33;23.30;;;8.90;99.90;;;;;;4978784;28;20563;-73
2023/04/15 04:20:46;;;;;;;39.83;24.13;;;8.90;99.90;;;;;;4975370;28;20220;-74
2023/04/15 04:23:11;;;;;;;33.70;24.43;;;8.90;99.90;;;;;;4977699;28;20239;-73
2023/04/15 04:25:37;;;;;;;30.67;23.40;;;8.90;99.90;;;;;;4972878;28;20217;-73
2023/04/15 04:28:03;;;;;;;32.23;23.17;;;8.90;99.90;;;;;;4974675;28;20189;-73
2023/04/15 04:30:29;;;;;;;30.90;22.17;;;8.90;99.90;;;;;;4976625;28;20300;-73
2023/04/15 04:32:54;;;;;;;31.50;22.53;;;8.90;99.90;;;;;;4976686;28;20607;-72
2023/04/15 04:35:20;;;;;;;34.43;24.77;;;9.00;99.90;;;;;;4977271;28;20201;-74
2023/04/15 04:37:46;;;;;;;29.47;24.10;;;9.00;99.90;;;;;;4977727;28;20208;-73
2023/04/15 04:40:12;;;;;;;34.00;23.97;;;9.00;99.90;;;;;;4975509;28;20621;-74
2023/04/15 04:42:37;;;;;;;32.57;22.53;;;9.00;99.90;;;;;;4976620;28;20664;-73
2023/04/15 04:45:03;;;;;;;35.53;24.13;;;9.00;99.90;;;;;;4960870;28;20197;-74
2023/04/15 04:47:29;;;;;;;30.07;22.77;;;9.00;99.90;;;;;;4974465;28;20235;-73
2023/04/15 04:49:54;;;;;;;28.70;22.30;;;9.00;99.90;;;;;;4977531;28;20212;-73
2023/04/15 04:52:20;;;;;;;32.13;21.97;;;9.00;99.90;;;;;;4957957;28;20724;-71
2023/04/15 04:54:46;;;;;;;32.30;22.43;;;9.10;99.90;;;;;;4971281;28;20207;-73
2023/04/15 04:57:12;;;;;;;29.57;22.60;;;9.10;99.90;;;;;;4973392;28;20882;-72
2023/04/15 04:59:38;;;;;;;26.80;21.17;;;9.10;99.90;;;;;;4977775;28;20280;-74
2023/04/15 05:02:03;;;;;;;26.07;20.83;;;9.10;99.90;;;;;;4976847;28;20320;-71
2023/04/15 05:04:30;;;;;;;27.60;20.43;;;9.10;99.90;;;;;;4975835;28;20228;-70
2023/04/15 05:06:56;;;;;;;30.00;22.13;;;9.20;99.90;;;;;;4968069;28;20196;-72
2023/04/15 05:09:22;;;;;;;27.17;21.37;;;9.20;99.90;;;;;;4976988;28;20203;-72
2023/04/15 05:11:47;;;;;;;27.90;21.07;;;9.30;99.90;;;;;;4977481;28;20205;-72
2023/04/15 05:14:13;;;;;;;26.97;21.53;;;9.30;99.90;;;;;;4976651;28;20620;-73
2023/04/15 05:16:38;;;;;;;29.63;21.73;;;9.30;99.90;;;;;;4977052;28;20245;-72
2023/04/15 05:19:04;;;;;;;31.57;22.10;;;9.30;99.90;;;;;;4969264;28;20582;-72
2023/04/15 05:21:30;;;;;;;28.17;21.27;;;9.40;99.90;;;;;;4967328;28;20262;-72
2023/04/15 05:23:55;;;;;;;25.10;20.10;;;9.40;99.90;;;;;;4967520;28;20234;-72
2023/04/15 05:26:21;;;;;;;27.00;20.07;;;9.40;99.90;;;;;;4964032;28;20620;-72
2023/04/15 05:28:46;;;;;;;25.63;19.87;;;9.40;99.90;;;;;;4963398;28;20279;-73
2023/04/15 05:31:12;;;;;;;24.70;18.20;;;9.40;99.90;;;;;;4963385;28;20206;-72
2023/04/15 05:33:39;;;;;;;27.17;20.00;;;9.40;99.90;;;;;;4965389;28;20642;-70
2023/04/15 05:36:05;;;;;;;27.83;20.33;;;9.50;99.90;;;;;;4949421;28;20311;-72
2023/04/15 05:38:30;;;;;;;26.57;19.50;;;9.50;99.90;;;;;;4967063;28;20284;-71
2023/04/15 05:40:56;;;;;;;27.07;19.67;;;9.50;99.90;;;;;;4965172;28;20676;-72
2023/04/15 05:43:21;;;;;;;22.70;17.93;;;9.60;99.90;;;;;;4970033;28;20193;-72
2023/04/15 05:45:47;;;;;;;26.30;19.67;;;9.60;99.90;;;;;;4967517;28;20201;-73
2023/04/15 05:48:12;;;;;;;23.10;18.50;;;9.70;99.90;;;;;;4970282;28;20227;-73
2023/04/15 05:50:40;;;;;;;21.03;17.47;;;9.60;99.90;;;;;;4966333;28;20641;-73
2023/04/15 05:53:07;;;;;;;20.67;16.33;;;9.70;99.90;;;;;;4965359;28;20209;-73
2023/04/15 05:55:32;;;;;;;25.77;19.53;;;9.70;99.90;;;;;;4967509;28;20236;-73
2023/04/15 05:57:57;;;;;;;24.60;18.00;;;9.80;99.90;;;;;;4964657;28;20283;-73
2023/04/15 06:00:23;;;;;;;20.57;17.80;;;9.80;99.90;;;;;;4968161;28;20986;-74
2023/04/15 06:02:49;;;;;;;27.33;19.33;;;9.80;99.90;;;;;;4973722;28;20727;-72
2023/04/15 06:05:14;;;;;;;21.27;17.03;;;9.90;99.90;;;;;;4966320;28;20736;-72
2023/04/15 06:07:40;;;;;;;25.13;16.97;;;9.90;99.90;;;;;;4969870;28;20273;-72
2023/04/15 06:10:06;;;;;;;23.53;17.10;;;9.90;99.90;;;;;;4970963;28;20705;-73
2023/04/15 06:12:32;;;;;;;19.87;17.17;;;10.10;99.90;;;;;;4966129;28;20205;-74
2023/04/15 06:14:57;;;;;;;21.50;16.47;;;10.20;99.90;;;;;;4966405;28;20208;-74
2023/04/15 06:17:23;;;;;;;17.43;15.33;;;10.40;99.90;;;;;;4963514;28;20202;-73
2023/04/15 06:19:54;;;;;;;18.30;15.87;;;10.50;99.90;;;;;;4967111;28;20600;-73
2023/04/15 06:22:20;;;;;;;17.93;15.43;;;10.50;99.90;;;;;;4966000;28;20305;-72
2023/04/15 06:24:45;;;;;;;21.17;15.17;;;10.60;99.90;;;;;;4964947;28;20256;-71
2023/04/15 06:27:11;;;;;;;19.70;16.57;;;10.60;99.90;;;;;;4966123;28;20361;-71
2023/04/15 06:29:36;;;;;;;17.33;15.27;;;10.60;99.90;;;;;;4965641;28;20217;-71
2023/04/15 06:32:01;;;;;;;19.13;15.50;;;10.50;99.90;;;;;;4966636;28;20245;-70
2023/04/15 06:34:27;;;;;;;16.90;14.23;;;10.60;99.90;;;;;;4965285;28;20329;-70
2023/04/15 06:36:53;;;;;;;18.27;15.07;;;10.70;99.90;;;;;;4975126;28;20212;-70
2023/04/15 06:39:19;;;;;;;14.27;12.73;;;10.70;99.90;;;;;;4963861;28;20199;-70
2023/04/15 06:41:45;;;;;;;17.23;13.23;;;10.80;99.90;;;;;;4970287;28;20235;-72
2023/04/15 06:44:11;;;;;;;16.23;13.47;;;10.80;99.90;;;;;;4970376;28;20217;-71
2023/04/15 06:46:37;;;;;;;15.33;13.73;;;10.80;99.90;;;;;;4971078;28;20220;-73
2023/04/15 06:49:02;;;;;;;15.23;13.23;;;10.80;99.90;;;;;;4971528;28;20562;-72
2023/04/15 06:51:28;;;;;;;20.10;13.70;;;10.80;99.90;;;;;;4969636;28;20203;-72
2023/04/15 06:53:53;;;;;;;15.50;13.90;;;10.90;99.90;;;;;;4968687;28;20287;-71
2023/04/15 06:56:19;;;;;;;15.43;13.90;;;11.00;99.90;;;;;;4970128;28;20249;-71
2023/04/15 06:58:45;;;;;;;16.03;12.83;;;11.10;99.90;;;;;;4968199;28;20207;-71
2023/04/15 07:01:11;;;;;;;14.93;13.27;;;11.20;99.90;;;;;;4970840;28;20245;-70
2023/04/15 07:03:37;;;;;;;16.33;12.20;;;11.30;99.90;;;;;;4971879;28;20202;-71
2023/04/15 07:06:05;;;;;;;16.27;11.63;;;11.30;99.90;;;;;;4963333;28;20226;-70
2023/04/15 07:08:31;;;;;;;13.87;12.10;;;11.30;99.90;;;;;;4978374;28;20297;-73
2023/04/15 07:10:56;;;;;;;12.77;11.43;;;11.40;99.90;;;;;;4969928;28;20706;-71
2023/04/15 07:13:22;;;;;;;16.27;11.90;;;11.50;99.90;;;;;;4969380;28;20203;-72
2023/04/15 07:15:47;;;;;;;12.93;11.10;;;11.50;99.90;;;;;;4970437;28;20206;-72
2023/04/15 07:18:13;;;;;;;12.70;10.47;;;11.60;99.90;;;;;;4969217;28;20203;-73
2023/04/15 07:20:39;;;;;;;12.97;11.23;;;11.70;99.90;;;;;;4966960;28;20220;-72
2023/04/15 07:23:04;;;;;;;12.63;10.70;;;11.70;99.90;;;;;;4971039;28;20697;-73
2023/04/15 07:25:30;;;;;;;13.60;11.10;;;11.90;99.90;;;;;;4970902;28;20607;-73
2023/04/15 07:27:55;;;;;;;10.63;9.33;;;12.10;99.90;;;;;;4968094;28;20200;-68
2023/04/15 07:30:21;;;;;;;11.67;10.37;;;11.90;99.90;;;;;;4967400;28;20201;-71
2023/04/15 07:32:46;;;;;;;12.00;10.20;;;11.90;99.90;;;;;;4969374;28;20284;-69
2023/04/15 07:35:12;;;;;;;11.63;10.43;;;11.90;99.90;;;;;;4972311;28;20210;-67
2023/04/15 07:37:37;;;;;;;11.53;10.43;;;11.80;99.90;;;;;;4966136;28;20267;-66
2023/04/15 07:40:04;;;;;;;11.87;10.00;;;11.80;99.90;;;;;;4969373;28;20609;-68
2023/04/15 07:42:30;;;;;;;11.77;10.67;;;11.80;99.90;;;;;;4969455;28;20593;-83
2023/04/15 07:44:56;;;;;;;12.13;10.83;;;11.70;99.90;;;;;;4966876;28;20208;-72
2023/04/15 07:47:22;;;;;;;13.07;9.90;;;11.70;99.90;;;;;;4968022;28;20280;-67
2023/04/15 07:49:48;;;;;;;11.03;9.93;;;11.80;99.90;;;;;;4966931;28;20718;-67
2023/04/15 07:52:13;;;;;;;12.80;10.43;;;11.60;99.90;;;;;;4967841;28;20297;-67
2023/04/15 07:54:39;;;;;;;12.97;10.00;;;11.50;99.90;;;;;;4967054;28;20214;-68
2023/04/15 07:57:04;;;;;;;14.37;10.60;;;11.40;99.90;;;;;;4967177;28;20211;-66
2023/04/15 07:59:32;;;;;;;12.77;11.03;;;11.20;99.90;;;;;;4967154;28;20216;-66
2023/04/15 08:01:58;;;;;;;13.63;10.93;;;11.30;99.90;;;;;;4949226;28;20218;-68
2023/04/15 08:04:23;;;;;;;12.00;10.57;;;11.40;99.90;;;;;;4968970;28;20217;-66
2023/04/15 08:06:49;;;;;;;12.37;11.07;;;11.50;99.90;;;;;;4969403;28;20251;-66
2023/04/15 08:09:15;;;;;;;13.23;10.50;;;11.50;99.90;;;;;;4966578;28;20206;-67
2023/04/15 08:11:40;;;;;;;12.43;11.10;;;11.60;99.90;;;;;;4967931;28;20210;-66
2023/04/15 08:14:06;;;;;;;12.63;10.87;;;11.60;99.90;;;;;;4964239;28;20554;-66
2023/04/15 08:16:32;;;;;;;12.67;11.47;;;11.50;99.90;;;;;;4963828;28;20205;-66
2023/04/15 08:18:57;;;;;;;12.30;11.00;;;11.50;99.90;;;;;;4967855;28;20615;-66
2023/04/15 08:21:23;;;;;;;16.03;11.20;;;11.40;99.90;;;;;;4965779;28;20733;-65
2023/04/15 08:23:51;;;;;;;12.23;11.07;;;11.30;99.90;;;;;;4968381;28;20207;-65
2023/04/15 08:26:17;;;;;;;12.90;11.10;;;11.30;99.90;;;;;;4968495;28;20196;-66
2023/04/15 08:28:44;;;;;;;12.70;11.40;;;11.30;99.90;;;;;;4968167;28;20213;-65
2023/04/15 08:31:10;;;;;;;16.60;11.70;;;11.30;99.90;;;;;;4968428;28;20214;-67
2023/04/15 08:33:36;;;;;;;12.10;10.70;;;11.30;99.90;;;;;;4968377;28;20723;-65
2023/04/15 08:36:02;;;;;;;12.17;10.87;;;11.20;99.90;;;;;;4966833;28;20195;-65
2023/04/15 08:38:27;;;;;;;13.30;11.97;;;11.30;99.90;;;;;;4967388;28;20245;-65
2023/04/15 08:40:53;;;;;;;16.30;11.80;;;11.30;99.90;;;;;;4970146;28;20756;-65
2023/04/15 08:43:29;;;;;;;14.53;11.23;;;11.30;99.90;;;;;;4967813;28;20322;-66
2023/04/15 08:45:55;;;;;;;13.43;11.70;;;11.40;99.90;;;;;;4969408;28;20287;-64
2023/04/15 08:48:23;;;;;;;15.17;13.17;;;11.50;99.90;;;;;;4969034;28;20217;-65
2023/04/15 08:50:50;;;;;;;14.27;12.53;;;11.50;99.90;;;;;;4967762;28;20285;-65
2023/04/15 08:53:16;;;;;;;14.33;12.80;;;11.60;99.90;;;;;;4967300;28;20211;-69
2023/04/15 08:55:47;;;;;;;13.87;12.47;;;11.70;99.90;;;;;;4966193;28;20308;-66
2023/04/15 08:58:13;;;;;;;14.80;11.40;;;11.70;99.90;;;;;;4965968;28;20221;-65
2023/04/15 09:00:41;;;;;;;12.40;11.17;;;11.60;99.90;;;;;;4966807;28;20222;-65
2023/04/15 09:03:08;;;;;;;13.77;12.47;;;11.60;99.90;;;;;;4963158;28;20199;-64
2023/04/15 09:05:34;;;;;;;14.00;12.60;;;11.60;99.90;;;;;;4967746;28;20209;-67
2023/04/15 09:08:01;;;;;;;13.33;12.03;;;11.60;99.90;;;;;;4967366;28;20337;-65
2023/04/15 09:10:27;;;;;;;14.13;12.67;;;11.60;99.90;;;;;;4965459;28;20194;-66
2023/04/15 09:12:53;;;;;;;16.30;13.87;;;11.60;99.90;;;;;;4968923;28;20210;-68
2023/04/15 09:15:19;;;;;;;17.97;12.37;;;11.50;99.90;;;;;;4974103;28;20741;-65
2023/04/15 09:17:45;;;;;;;13.33;11.93;;;11.60;99.90;;;;;;4971475;28;20264;-64
2023/04/15 09:20:17;;;;;;;13.50;12.10;;;11.50;99.90;;;;;;4966908;28;20204;-64
2023/04/15 09:22:45;;;;;;;12.77;11.50;;;11.40;99.90;;;;;;4966232;28;20209;-64
2023/04/15 09:25:23;;;;;;;16.23;14.07;;;11.40;99.90;;;;;;4966980;28;20576;-64
2023/04/15 09:27:55;;;;;;;13.00;11.60;;;11.40;99.90;;;;;;4964324;28;20241;-64
2023/04/15 09:30:21;;;;;;;14.30;12.57;;;11.40;99.90;;;;;;4966489;28;20565;-64
2023/04/15 09:32:55;;;;;;;15.80;13.47;;;11.40;99.90;;;;;;4966706;28;20221;-64
2023/04/15 09:35:21;;;;;;;14.03;12.53;;;11.30;99.90;;;;;;4962387;28;20619;-65
2023/04/15 09:37:48;;;;;;;16.20;13.10;;;11.40;99.90;;;;;;4967121;28;20215;-66
2023/04/15 09:40:29;;;;;;;12.63;11.43;;;11.40;99.90;;;;;;4967076;28;20654;-65
2023/04/15 09:42:56;;;;;;;16.13;13.53;;;11.50;99.90;;;;;;4971677;28;20226;-64
2023/04/15 09:45:22;;;;;;;14.83;12.67;;;11.50;99.90;;;;;;4976627;28;20198;-65
2023/04/15 09:47:50;;;;;;;21.63;12.87;;;11.50;99.90;;;;;;4976670;28;20203;-64
2023/04/15 09:50:15;;;;;;;14.93;12.80;;;11.60;99.90;;;;;;4975995;28;20201;-68
2023/04/15 09:52:42;;;;;;;13.93;12.63;;;11.70;99.90;;;;;;4974959;28;20631;-65
2023/04/15 09:55:08;;;;;;;12.97;11.37;;;11.70;99.90;;;;;;4976198;28;20209;-66
2023/04/15 09:57:37;;;;;;;12.43;11.23;;;11.70;99.90;;;;;;4976089;28;20200;-64
2023/04/15 10:00:05;;;;;;;13.63;12.23;;;11.70;99.90;;;;;;4976112;28;20197;-81
2023/04/15 10:02:31;;;;;;;12.93;11.40;;;11.70;99.90;;;;;;4976903;28;20221;-85
2023/04/15 10:04:57;;;;;;;16.00;12.57;;;11.60;99.90;;;;;;4970111;28;20897;-77
2023/04/15 10:07:23;;;;;;;13.43;12.13;;;11.60;99.90;;;;;;4971824;28;20257;-77
2023/04/15 10:09:48;;;;;;;12.57;11.37;;;11.60;99.90;;;;;;4968069;28;20233;-77
2023/04/15 10:12:18;;;;;;;15.20;12.03;;;11.60;99.90;;;;;;4969182;28;20989;-77
2023/04/15 10:14:52;;;;;;;13.53;12.13;;;11.60;99.90;;;;;;4969738;28;20197;-77
2023/04/15 10:17:21;;;;;;;13.17;11.83;;;11.50;99.90;;;;;;4967214;28;20210;-76
2023/04/15 10:19:48;;;;;;;12.93;11.63;;;11.60;99.90;;;;;;4970748;28;20210;-77
2023/04/15 10:22:14;;;;;;;13.93;12.53;;;11.60;99.90;;;;;;4965850;28;20225;-77
2023/04/15 10:24:40;;;;;;;15.73;12.67;;;11.60;99.90;;;;;;4970725;28;20214;-77
2023/04/15 10:27:06;;;;;;;11.93;10.73;;;11.60;99.90;;;;;;4970015;28;20193;-77
2023/04/15 10:29:33;;;;;;;12.57;11.27;;;11.60;99.90;;;;;;4970197;28;20202;-77
2023/04/15 10:31:59;;;;;;;12.57;11.27;;;11.60;99.90;;;;;;4969239;28;20227;-77
2023/04/15 10:34:25;;;;;;;13.10;11.93;;;11.60;99.90;;;;;;4965329;28;20315;-75
2023/04/15 10:36:56;;;;;;;13.90;12.37;;;11.60;99.90;;;;;;4969691;28;20202;-77
2023/04/15 10:39:33;;;;;;;12.07;10.87;;;11.60;99.90;;;;;;4970836;28;20751;-77
2023/04/15 10:42:11;;;;;;;13.47;12.07;;;11.60;99.90;;;;;;4967820;28;20222;-77
2023/04/15 10:44:37;;;;;;;13.83;12.33;;;11.70;99.90;;;;;;4969543;28;20614;-78
2023/04/15 10:47:17;;;;;;;12.53;11.13;;;11.70;99.90;;;;;;4969922;28;20202;-77
2023/04/15 10:49:46;;;;;;;13.17;11.90;;;11.60;99.90;;;;;;4969576;28;20292;-77
2023/04/15 10:52:14;;;;;;;13.43;12.03;;;11.80;99.90;;;;;;4968499;28;20216;-77
2023/04/15 10:54:40;;;;;;;13.10;11.83;;;11.90;99.90;;;;;;4977964;28;20216;-77
2023/04/15 10:57:06;;;;;;;13.17;11.23;;;11.90;99.90;;;;;;4977741;28;20208;-78
2023/04/15 10:59:36;;;;;;;13.87;12.30;;;11.90;99.90;;;;;;4969400;28;20302;-77
2023/04/15 11:02:04;;;;;;;13.63;11.97;;;12.00;99.90;;;;;;4969781;28;20373;-77
2023/04/15 11:04:54;;;;;;;16.63;11.93;;;12.00;99.90;;;;;;4968013;28;20215;-76
2023/04/15 11:07:45;;;;;;;13.47;11.87;;;12.00;99.90;;;;;;4968584;28;20198;-77
2023/04/15 11:10:16;;;;;;;12.67;11.33;;;12.00;99.90;;;;;;4969583;28;20210;-76
2023/04/15 11:12:43;;;;;;;15.63;11.83;;;12.00;99.90;;;;;;4967828;28;20835;-77
2023/04/15 11:15:39;;;;;;;12.67;11.37;;;12.10;99.90;;;;;;4973864;28;20508;-77
2023/04/15 11:18:15;;;;;;;12.73;11.13;;;12.10;99.90;;;;;;4969268;28;20198;-77
2023/04/15 11:20:44;;;;;;;12.60;11.33;;;12.00;99.90;;;;;;4968955;28;20263;-77
2023/04/15 11:23:10;;;;;;;11.43;10.23;;;12.10;99.90;;;;;;4968320;28;20762;-76
2023/04/15 11:25:38;;;;;;;12.40;11.20;;;12.10;99.90;;;;;;4965190;28;20199;-77
2023/04/15 11:28:05;;;;;;;13.67;12.33;;;12.10;99.90;;;;;;4969905;28;20206;-77
2023/04/15 11:30:36;;;;;;;13.50;12.20;;;12.00;99.90;;;;;;4970530;28;20214;-76
2023/04/15 11:33:03;;;;;;;13.90;11.60;;;11.90;99.90;;;;;;4968831;28;20240;-76
2023/04/15 11:35:29;;;;;;;14.13;11.77;;;11.90;99.90;;;;;;4972032;28;20975;-76
2023/04/15 11:37:55;;;;;;;12.13;10.93;;;11.90;99.90;;;;;;4974525;28;20235;-77
2023/04/15 11:40:28;;;;;;;12.77;11.33;;;11.80;99.90;;;;;;4969104;28;20209;-77
2023/04/15 11:43:14;;;;;;;14.27;11.87;;;11.80;99.90;;;;;;4968060;28;20974;-77
2023/04/15 11:45:58;;;;;;;12.63;10.90;;;11.80;99.90;;;;;;4970651;28;20205;-78
2023/04/15 11:48:25;;;;;;;14.57;12.63;;;11.70;99.90;;;;;;4971533;28;20207;-77
2023/04/15 11:51:05;;;;;;;12.03;10.83;;;11.70;99.90;;;;;;4966147;28;20202;-76
2023/04/15 11:53:47;;;;;;;11.30;10.20;;;11.70;99.90;;;;;;4966035;28;20222;-76
2023/04/15 11:56:24;;;;;;;12.90;10.10;;;11.70;99.90;;;;;;4967042;28;20400;-76
2023/04/15 11:58:58;;;;;;;12.47;11.27;;;11.70;99.90;;;;;;4968457;28;20747;-77
2023/04/15 12:01:35;;;;;;;12.03;10.93;;;11.80;99.90;;;;;;4972838;28;20259;-76
2023/04/15 12:04:02;;;;;;;12.60;10.17;;;11.90;99.90;;;;;;4966237;28;20573;-77
2023/04/15 12:06:33;;;;;;;15.43;11.27;;;11.90;99.90;;;;;;4968804;28;20215;-77
2023/04/15 12:09:12;;;;;;;11.70;10.50;;;11.90;99.90;;;;;;4966670;28;20196;-76
2023/04/15 12:11:39;;;;;;;11.93;10.77;;;11.80;99.90;;;;;;4971273;28;20211;-77
2023/04/15 12:14:24;;;;;;;11.63;10.43;;;11.80;99.90;;;;;;4968862;28;20676;-77
2023/04/15 12:16:55;;;;;;;11.53;10.33;;;11.70;99.90;;;;;;4965924;28;20216;-77
2023/04/15 12:19:28;;;;;;;11.90;10.70;;;11.80;99.90;;;;;;4968816;28;20210;-77
2023/04/15 12:21:59;;;;;;;12.00;10.67;;;11.80;99.90;;;;;;4966399;28;20219;-77
2023/04/15 12:24:25;;;;;;;11.10;10.00;;;11.90;99.90;;;;;;4967490;28;20220;-77
2023/04/15 12:26:58;;;;;;;12.40;10.67;;;11.90;99.90;;;;;;4968426;28;20571;-77
2023/04/15 12:29:28;;;;;;;14.13;11.70;;;12.00;99.90;;;;;;4966766;28;20566;-76
2023/04/15 12:31:57;;;;;;;11.07;9.97;;;12.00;99.90;;;;;;4967884;28;20340;-76